Time;durP1;ratioP1;P1;durP2;ratioP2;P2;SDS_P1;SDS_P2;PMS_P1;PMS_P2;Temp;Humidity;BMP_temperature;BMP_pressure;BME280_temperature;BME280_humidity;BME280_pressure;Samples;Min_cycle;Max_cycle;Signal;HPM_P1;HPM_P2
2022/08/02 00:01:44;;;;;;;1.83;1.10;;;;;;;19.53;98.35;96099.19;5043151;28;24467;-73
2022/08/02 00:04:10;;;;;;;1.58;0.90;;;;;;;19.63;97.58;96095.75;5050336;28;24500;-73
2022/08/02 00:06:37;;;;;;;1.20;0.90;;;;;;;19.66;97.84;96093.66;5038231;28;25070;-73
2022/08/02 00:09:05;;;;;;;3.35;0.93;;;;;;;19.60;97.79;96094.22;5048145;28;24447;-73
2022/08/02 00:11:33;;;;;;;1.40;1.02;;;;;;;19.62;97.74;96088.81;5032091;28;24436;-73
2022/08/02 00:13:59;;;;;;;1.10;0.70;;;;;;;19.64;97.22;96095.59;5042880;28;24443;-73
2022/08/02 00:16:26;;;;;;;2.00;1.10;;;;;;;19.64;96.91;96092.16;5042003;28;24984;-73
2022/08/02 00:18:52;;;;;;;0.98;0.80;;;;;;;19.66;96.92;96098.94;5043624;28;24466;-73
2022/08/02 00:21:19;;;;;;;1.42;0.88;;;;;;;19.65;95.76;96094.63;5042311;28;24447;-73
2022/08/02 00:23:45;;;;;;;1.70;0.93;;;;;;;19.61;95.87;96095.84;5047331;28;24447;-73
2022/08/02 00:26:12;;;;;;;1.70;0.90;;;;;;;19.52;96.14;96097.56;5041735;28;24503;-73
2022/08/02 00:28:40;;;;;;;1.60;1.08;;;;;;;19.46;96.68;96094.66;5047012;28;24473;-73
2022/08/02 00:31:06;;;;;;;1.70;0.90;;;;;;;19.41;96.40;96089.84;5031032;28;24431;-73
2022/08/02 00:33:33;;;;;;;3.13;0.75;;;;;;;19.40;93.54;96090.81;5046523;28;24458;-73
2022/08/02 00:35:59;;;;;;;1.30;0.90;;;;;;;19.27;92.28;96090.28;5047207;28;24443;-73
2022/08/02 00:38:25;;;;;;;1.00;0.70;;;;;;;19.17;91.86;96092.97;5039305;28;24447;-73
2022/08/02 00:40:53;;;;;;;0.90;0.60;;;;;;;19.15;92.39;96094.06;5036397;28;24451;-73
2022/08/02 00:43:19;;;;;;;1.27;0.90;;;;;;;19.12;92.46;96092.53;5043497;28;24431;-73
2022/08/02 00:45:47;;;;;;;1.20;0.80;;;;;;;19.10;92.70;96090.06;5045683;28;24427;-73
2022/08/02 00:48:14;;;;;;;1.50;1.00;;;;;;;19.12;93.82;96089.09;5044352;28;24458;-73
2022/08/02 00:50:41;;;;;;;1.42;0.88;;;;;;;19.18;95.66;96093.78;5046637;28;24427;-73
2022/08/02 00:53:09;;;;;;;2.20;1.02;;;;;;;18.81;100.00;96097.16;5044368;28;24797;-73
2022/08/02 00:55:36;;;;;;;1.05;0.90;;;;;;;18.47;100.00;96088.84;5044399;28;24438;-73
2022/08/02 00:58:03;;;;;;;1.17;0.97;;;;;;;18.17;100.00;96100.22;5047427;28;24436;-74
2022/08/02 01:00:29;;;;;;;1.60;1.38;;;;;;;17.95;100.00;96088.16;5045331;28;24987;-73
2022/08/02 01:02:57;;;;;;;3.05;1.35;;;;;;;17.96;100.00;96092.47;5041443;28;24845;-73
2022/08/02 01:05:24;;;;;;;1.60;1.05;;;;;;;18.10;100.00;96106.03;5039866;28;25015;-73
2022/08/02 01:07:50;;;;;;;1.30;0.90;;;;;;;18.17;100.00;96101.06;5040155;28;24447;-73
2022/08/02 01:10:17;;;;;;;1.30;1.00;;;;;;;18.26;100.00;96102.03;5041246;28;24523;-73
2022/08/02 01:12:44;;;;;;;3.55;1.58;;;;;;;18.30;100.00;96098.19;5041056;28;24446;-73
2022/08/02 01:15:12;;;;;;;1.20;1.05;;;;;;;18.35;100.00;96096.81;5047326;28;24439;-73
2022/08/02 01:17:47;;;;;;;1.45;0.93;;;;;;;18.38;100.00;96093.09;5038031;28;24436;-73
2022/08/02 01:20:36;;;;;;;2.28;0.95;;;;;;;18.34;100.00;96094.31;5035598;28;24447;-73
2022/08/02 01:23:32;;;;;;;1.45;0.95;;;;;;;18.45;100.00;96099.44;5040274;28;24432;-73
2022/08/02 01:26:17;;;;;;;1.60;1.20;;;;;;;18.17;100.00;96106.31;5042451;28;24995;-73
2022/08/02 01:28:51;;;;;;;1.60;1.17;;;;;;;18.19;100.00;96103.53;5046131;28;24987;-73
2022/08/02 01:31:26;;;;;;;1.40;1.10;;;;;;;18.31;100.00;96102.47;5036893;28;24785;-73
2022/08/02 01:33:59;;;;;;;1.52;1.10;;;;;;;18.35;100.00;96104.69;5045186;28;24437;-73
2022/08/02 01:36:30;;;;;;;3.15;1.23;;;;;;;18.33;100.00;96114.47;5039883;28;24439;-73
2022/08/02 01:38:58;;;;;;;1.58;1.13;;;;;;;18.23;100.00;96111.00;5033317;28;24447;-73
2022/08/02 01:41:28;;;;;;;1.55;1.00;;;;;;;18.06;100.00;96109.88;5038219;28;24458;-73
2022/08/02 01:43:59;;;;;;;2.30;1.30;;;;;;;18.04;100.00;96111.78;5044423;28;24577;-73
2022/08/02 01:46:28;;;;;;;1.48;1.20;;;;;;;18.02;100.00;96116.34;5042898;28;25033;-73
2022/08/02 01:48:58;;;;;;;1.73;1.20;;;;;;;17.97;100.00;96117.69;5042773;28;24439;-73
2022/08/02 01:54:11;;;;;;;1.45;1.10;;;;;;;18.11;100.00;96118.16;5037306;28;24439;-73
2022/08/02 01:56:38;;;;;;;1.43;0.90;;;;;;;18.18;100.00;96122.88;5044385;28;24477;-73
2022/08/02 01:59:09;;;;;;;1.48;1.05;;;;;;;18.16;100.00;96122.97;5057161;22;24522;-76
2022/08/02 02:01:38;;;;;;;1.90;1.15;;;;;;;18.14;100.00;96124.94;4997880;28;24814;-74
2022/08/02 02:04:06;;;;;;;1.20;0.90;;;;;;;18.20;100.00;96126.16;4995402;28;24475;-74
2022/08/02 02:06:33;;;;;;;1.63;1.08;;;;;;;18.16;100.00;96120.38;4990680;28;24441;-74
2022/08/02 02:09:01;;;;;;;1.45;1.20;;;;;;;18.16;100.00;96122.16;4991998;28;24452;-75
2022/08/02 02:11:27;;;;;;;1.53;1.00;;;;;;;18.12;100.00;96126.84;4980976;28;24437;-74
2022/08/02 02:13:56;;;;;;;1.30;1.20;;;;;;;18.13;100.00;96124.09;4994296;28;24521;-74
2022/08/02 02:16:26;;;;;;;1.23;1.05;;;;;;;18.12;100.00;96117.19;4989199;28;24503;-75
2022/08/02 02:18:53;;;;;;;1.00;0.90;;;;;;;17.79;100.00;96118.31;4996882;28;24449;-74
2022/08/02 02:21:19;;;;;;;1.55;1.08;;;;;;;18.00;100.00;96117.44;4993182;28;24464;-75
2022/08/02 02:23:46;;;;;;;4.27;1.20;;;;;;;17.76;100.00;96112.50;4993269;28;24432;-74
2022/08/02 02:26:16;;;;;;;2.00;1.20;;;;;;;17.55;100.00;96099.44;5005404;28;24526;-74
2022/08/02 02:28:46;;;;;;;1.98;0.90;;;;;;;17.70;100.00;96098.13;4996827;28;24456;-74
2022/08/02 02:31:16;;;;;;;1.33;1.00;;;;;;;17.81;100.00;96092.81;4990378;28;25005;-74
2022/08/02 02:33:48;;;;;;;1.05;0.90;;;;;;;17.86;100.00;96088.00;4994202;28;25048;-75
2022/08/02 02:36:17;;;;;;;1.60;1.20;;;;;;;17.88;100.00;96080.84;4994047;28;24834;-74
2022/08/02 02:38:45;;;;;;;1.55;1.10;;;;;;;17.56;100.00;96075.75;4997637;28;24997;-74
2022/08/02 02:41:13;;;;;;;1.03;0.90;;;;;;;17.68;100.00;96076.47;4994423;28;25156;-74
2022/08/02 02:43:42;;;;;;;1.15;0.95;;;;;;;17.78;100.00;96077.38;4994469;28;24445;-77
2022/08/02 02:46:09;;;;;;;1.58;0.98;;;;;;;17.81;100.00;96079.72;4986729;28;24491;-74
2022/08/02 02:48:37;;;;;;;2.08;1.17;;;;;;;17.73;100.00;96076.09;4997829;28;24459;-75
2022/08/02 02:51:06;;;;;;;1.42;1.05;;;;;;;17.65;100.00;96082.81;4987853;28;24449;-75
2022/08/02 02:53:34;;;;;;;1.33;0.93;;;;;;;17.73;100.00;96073.47;4984550;28;24834;-74
2022/08/02 02:56:02;;;;;;;1.03;0.93;;;;;;;17.52;100.00;96076.97;4984635;28;24460;-75
2022/08/02 02:58:28;;;;;;;1.20;0.90;;;;;;;17.50;100.00;96073.66;4994493;28;24448;-75
2022/08/02 03:03:40;;;;;;;1.40;0.88;;;;;;;17.47;100.00;96076.53;4993420;28;24420;-75
2022/08/02 03:06:08;;;;;;;1.52;1.08;;;;;;;17.45;100.00;96073.22;5000569;28;24440;-75
2022/08/02 03:08:34;;;;;;;1.27;1.10;;;;;;;17.40;100.00;96071.00;4997639;28;24444;-75
2022/08/02 03:11:01;;;;;;;1.92;0.93;;;;;;;17.29;100.00;96073.69;4993638;28;24521;-74
2022/08/02 03:13:29;;;;;;;2.00;0.90;;;;;;;17.32;100.00;96081.28;4994915;28;24846;-74
2022/08/02 03:15:57;;;;;;;3.25;1.10;;;;;;;17.41;100.00;96080.50;4993022;28;24495;-75
2022/08/02 03:18:30;;;;;;;1.65;1.10;;;;;;;17.47;100.00;96079.16;4984023;28;24438;-74
2022/08/02 03:20:59;;;;;;;1.00;0.90;;;;;;;17.46;100.00;96080.09;4989776;28;24441;-74
2022/08/02 03:23:27;;;;;;;1.73;1.07;;;;;;;17.45;100.00;96070.59;4990926;28;24450;-76
2022/08/02 03:25:53;;;;;;;1.00;0.90;;;;;;;17.39;100.00;96077.19;4996481;28;25117;-74
2022/08/02 03:28:19;;;;;;;3.83;1.10;;;;;;;17.44;100.00;96074.19;4997314;28;24437;-77
2022/08/02 03:30:46;;;;;;;3.88;0.95;;;;;;;17.36;100.00;96074.00;4989519;28;24440;-74
2022/08/02 03:33:12;;;;;;;3.00;1.02;;;;;;;17.36;100.00;96079.25;4993480;28;24433;-75
2022/08/02 03:35:41;;;;;;;2.33;0.80;;;;;;;17.31;100.00;96081.41;4996977;28;24482;-74
2022/08/02 03:38:08;;;;;;;1.65;0.95;;;;;;;17.30;100.00;96085.00;4988859;28;25009;-74
2022/08/02 03:40:37;;;;;;;1.03;0.90;;;;;;;16.94;100.00;96084.50;4992020;28;24455;-74
2022/08/02 03:43:04;;;;;;;1.25;1.15;;;;;;;16.96;100.00;96079.97;4985267;28;24458;-74
2022/08/02 03:45:31;;;;;;;1.20;0.98;;;;;;;17.02;100.00;96084.72;4986357;28;24441;-75
2022/08/02 03:47:58;;;;;;;2.70;1.00;;;;;;;17.12;100.00;96088.19;4986789;28;24479;-74
2022/08/02 03:50:26;;;;;;;2.45;1.20;;;;;;;17.16;100.00;96089.59;4989703;28;24798;-74
2022/08/02 03:52:53;;;;;;;2.28;1.17;;;;;;;17.25;100.00;96087.19;4998275;28;24847;-75
2022/08/02 03:55:20;;;;;;;1.70;1.23;;;;;;;17.07;100.00;96084.31;4985447;28;24451;-75
2022/08/02 03:57:48;;;;;;;1.70;1.20;;;;;;;17.07;100.00;96094.78;4991687;28;24842;-75
2022/08/02 04:00:19;;;;;;;2.33;1.30;;;;;;;17.13;100.00;96094.25;4989299;28;24452;-76
2022/08/02 04:02:46;;;;;;;1.43;1.30;;;;;;;17.15;100.00;96087.13;4993759;28;24911;-76
2022/08/02 04:05:13;;;;;;;3.33;1.08;;;;;;;16.99;100.00;96092.81;4991186;28;24436;-75
2022/08/02 04:07:39;;;;;;;2.10;1.30;;;;;;;16.81;100.00;96096.94;4993515;28;24433;-75
2022/08/02 04:10:06;;;;;;;1.42;1.20;;;;;;;16.61;100.00;96096.78;4998070;28;24982;-75
2022/08/02 04:12:33;;;;;;;2.88;1.45;;;;;;;16.49;100.00;96091.69;4989626;28;24469;-75
2022/08/02 04:15:02;;;;;;;2.20;1.40;;;;;;;16.50;100.00;96095.97;4985782;28;24519;-73
2022/08/02 04:17:32;;;;;;;2.00;1.40;;;;;;;16.50;100.00;96099.44;4988005;28;25012;-73
2022/08/02 04:20:05;;;;;;;1.40;1.20;;;;;;;16.50;100.00;96102.03;4983578;28;24452;-72
2022/08/02 04:22:39;;;;;;;1.33;1.23;;;;;;;16.59;100.00;96098.66;4981942;28;25017;-71
2022/08/02 04:25:10;;;;;;;3.70;1.40;;;;;;;16.66;100.00;96099.84;4988635;28;24823;-69
2022/08/02 04:27:37;;;;;;;1.77;1.17;;;;;;;16.64;100.00;96104.34;4991653;28;24997;-70
2022/08/02 04:30:07;;;;;;;2.00;0.90;;;;;;;16.40;100.00;96115.03;4988947;28;24987;-70
2022/08/02 04:32:34;;;;;;;1.20;1.05;;;;;;;16.50;100.00;96119.50;4993933;28;25012;-71
2022/08/02 04:35:01;;;;;;;1.80;1.00;;;;;;;16.61;100.00;96119.44;4985897;28;24448;-70
2022/08/02 04:37:28;;;;;;;1.30;1.20;;;;;;;16.66;100.00;96112.91;4990908;28;24437;-72
2022/08/02 04:39:54;;;;;;;2.00;1.40;;;;;;;16.66;100.00;96110.28;4990500;28;24456;-72
2022/08/02 04:42:21;;;;;;;1.90;1.30;;;;;;;16.73;100.00;96110.63;4984138;28;24464;-72
2022/08/02 04:44:48;;;;;;;2.80;1.38;;;;;;;16.80;100.00;96111.81;4990472;28;24558;-72
2022/08/02 04:47:16;;;;;;;5.00;1.20;;;;;;;16.96;100.00;96119.22;4991329;28;24475;-72
2022/08/02 04:49:43;;;;;;;5.07;1.15;;;;;;;16.99;100.00;96118.16;4994548;28;24452;-73
2022/08/02 04:52:09;;;;;;;1.63;1.20;;;;;;;17.02;100.00;96118.72;4990728;28;24442;-72
2022/08/02 04:54:36;;;;;;;2.20;1.40;;;;;;;16.89;100.00;96118.06;4988157;28;24437;-73
2022/08/02 04:57:53;;;;;;;3.38;1.58;;;;;;;17.02;100.00;96113.50;4999836;28;24439;-72
2022/08/02 04:59:50;;;;;;;1.88;1.25;;;;;;;17.06;100.00;96116.69;4991604;28;24436;-72
2022/08/02 05:02:18;;;;;;;1.70;1.02;;;;;;;17.11;100.00;96120.56;4987859;28;25078;-72
2022/08/02 05:04:44;;;;;;;1.40;1.30;;;;;;;17.24;100.00;96117.72;4998164;28;25324;-73
2022/08/02 05:07:10;;;;;;;2.63;1.40;;;;;;;17.40;100.00;96107.66;4997878;28;25040;-70
2022/08/02 05:09:37;;;;;;;2.45;1.92;;;;;;;17.54;100.00;96116.97;4991561;28;24444;-73
2022/08/02 05:12:04;;;;;;;1.90;1.60;;;;;;;17.48;100.00;96120.09;4987388;28;24432;-73
2022/08/02 05:14:30;;;;;;;2.08;1.23;;;;;;;17.42;100.00;96125.84;4990247;28;24436;-73
2022/08/02 05:16:56;;;;;;;1.10;1.00;;;;;;;17.36;100.00;96123.75;4987168;28;24843;-73
2022/08/02 05:19:24;;;;;;;1.60;1.33;;;;;;;17.24;100.00;96128.19;4992202;28;24831;-71
2022/08/02 05:21:51;;;;;;;2.83;1.30;;;;;;;17.07;100.00;96129.63;5000028;28;25257;-73
2022/08/02 05:24:17;;;;;;;2.65;1.33;;;;;;;17.14;100.00;96120.31;4989471;28;24483;-71
2022/08/02 05:26:43;;;;;;;2.35;1.50;;;;;;;17.29;100.00;96114.75;5003237;28;24679;-72
2022/08/02 05:29:10;;;;;;;2.03;1.30;;;;;;;17.12;100.00;96122.22;4991782;28;24449;-72
2022/08/02 05:31:36;;;;;;;6.70;1.42;;;;;;;16.99;100.00;96116.34;5003993;28;24437;-76
2022/08/02 05:34:03;;;;;;;2.30;1.60;;;;;;;17.12;100.00;96114.34;4995149;28;24448;-76
2022/08/02 05:36:30;;;;;;;2.53;1.60;;;;;;;17.11;100.00;96112.72;4987988;28;24448;-74
2022/08/02 05:38:57;;;;;;;2.77;1.63;;;;;;;17.21;100.00;96117.19;4996047;28;24444;-74
2022/08/02 05:41:23;;;;;;;2.65;1.65;;;;;;;17.25;100.00;96113.34;4995639;28;25014;-73
2022/08/02 05:43:50;;;;;;;4.85;1.90;;;;;;;17.20;100.00;96118.13;4986788;28;24461;-73
2022/08/02 05:46:16;;;;;;;1.77;1.67;;;;;;;17.11;100.00;96117.94;4994031;28;24477;-73
2022/08/02 05:48:43;;;;;;;5.90;1.75;;;;;;;17.24;100.00;96122.97;4991261;28;24440;-73
2022/08/02 05:51:12;;;;;;;5.93;1.73;;;;;;;17.11;100.00;96128.41;4991361;28;25102;-73
2022/08/02 05:53:45;;;;;;;2.78;1.60;;;;;;;17.07;100.00;96128.81;5002826;28;24439;-73
2022/08/02 05:56:22;;;;;;;1.80;1.60;;;;;;;17.23;100.00;96128.34;4992292;28;24487;-70
2022/08/02 05:58:53;;;;;;;8.32;1.80;;;;;;;17.46;100.00;96114.13;4982606;28;24440;-72
2022/08/02 06:01:28;;;;;;;1.98;1.35;;;;;;;17.46;100.00;96116.75;4987193;28;24448;-72
2022/08/02 06:03:57;;;;;;;3.28;1.23;;;;;;;17.38;100.00;96129.66;4995657;28;25022;-73
2022/08/02 06:06:25;;;;;;;7.00;1.80;;;;;;;17.42;100.00;96125.84;4992362;28;24436;-73
2022/08/02 06:08:59;;;;;;;1.85;1.50;;;;;;;17.41;100.00;96125.00;4997112;28;25269;-73
2022/08/02 06:11:34;;;;;;;1.80;1.38;;;;;;;17.70;100.00;96131.38;4992576;28;24795;-74
2022/08/02 06:14:02;;;;;;;2.80;1.50;;;;;;;17.74;100.00;96125.72;4988617;28;24445;-73
2022/08/02 06:16:30;;;;;;;2.25;1.65;;;;;;;17.81;100.00;96132.13;4982907;28;24434;-73
2022/08/02 06:18:58;;;;;;;2.28;1.65;;;;;;;17.96;100.00;96132.59;4991009;28;24444;-73
2022/08/02 06:21:26;;;;;;;2.00;1.50;;;;;;;17.94;100.00;96134.50;4985415;28;24448;-71
2022/08/02 06:23:57;;;;;;;5.45;1.75;;;;;;;17.88;100.00;96125.41;4998657;28;24882;-73
2022/08/02 06:26:24;;;;;;;1.67;1.50;;;;;;;17.98;100.00;96125.41;4993122;28;24433;-72
2022/08/02 06:28:52;;;;;;;3.50;1.98;;;;;;;18.13;100.00;96125.88;4998944;28;24490;-72
2022/08/02 06:31:19;;;;;;;5.38;1.60;;;;;;;18.42;100.00;96130.34;4991124;28;24440;-73
2022/08/02 06:33:45;;;;;;;3.17;1.70;;;;;;;18.79;100.00;96123.50;4998512;28;24435;-72
2022/08/02 06:36:19;;;;;;;4.57;2.13;;;;;;;18.75;100.00;96127.38;4996800;28;24455;-72
2022/08/02 06:38:56;;;;;;;3.15;1.70;;;;;;;18.75;100.00;96116.88;4990196;28;24437;-73
2022/08/02 06:41:24;;;;;;;2.97;2.00;;;;;;;18.88;100.00;96111.38;4988462;28;24477;-72
2022/08/02 06:43:57;;;;;;;2.10;1.90;;;;;;;19.03;100.00;96109.97;4993490;28;25032;-73
2022/08/02 06:46:24;;;;;;;5.27;2.13;;;;;;;19.02;100.00;96117.97;4996581;28;24444;-74
2022/08/02 06:48:51;;;;;;;10.35;2.97;;;;;;;19.26;100.00;96117.53;4993435;28;24436;-73
2022/08/02 06:51:17;;;;;;;2.90;2.10;;;;;;;19.53;99.12;96116.75;4996901;28;24433;-73
2022/08/02 06:53:45;;;;;;;3.92;1.90;;;;;;;20.11;98.88;96118.38;4991092;28;24436;-73
2022/08/02 06:56:13;;;;;;;2.53;1.77;;;;;;;20.37;93.00;96119.31;4984359;28;24445;-72
2022/08/02 06:58:39;;;;;;;8.80;2.40;;;;;;;20.14;91.95;96128.59;4990241;28;24441;-73
2022/08/02 07:01:06;;;;;;;4.97;1.95;;;;;;;20.24;93.32;96126.72;4996861;28;24961;-73
2022/08/02 07:03:33;;;;;;;1.90;1.70;;;;;;;20.47;91.17;96125.34;4995148;28;24869;-73
2022/08/02 07:06:00;;;;;;;2.88;2.25;;;;;;;20.62;90.10;96128.34;4992580;28;24437;-73
2022/08/02 07:08:31;;;;;;;2.92;2.10;;;;;;;20.72;88.92;96126.44;4990228;28;24491;-74
2022/08/02 07:10:58;;;;;;;2.90;1.90;;;;;;;21.19;86.87;96131.44;4992289;28;24437;-74
2022/08/02 07:13:26;;;;;;;4.40;1.80;;;;;;;21.65;87.80;96126.00;4994285;28;24551;-73
2022/08/02 07:15:52;;;;;;;3.55;2.10;;;;;;;22.10;83.62;96132.81;4998517;28;24463;-73
2022/08/02 07:18:19;;;;;;;2.67;1.80;;;;;;;22.48;82.32;96133.34;4992866;28;25052;-73
2022/08/02 07:20:46;;;;;;;2.55;1.80;;;;;;;22.86;79.28;96134.53;4988211;28;24445;-73
2022/08/02 07:23:13;;;;;;;3.50;2.05;;;;;;;22.44;78.49;96122.25;4989489;28;24709;-73
2022/08/02 07:25:40;;;;;;;2.60;2.10;;;;;;;22.86;78.17;96134.53;5001071;28;24473;-73
2022/08/02 07:28:09;;;;;;;2.88;1.80;;;;;;;23.13;75.36;96126.31;4977627;28;24439;-73
2022/08/02 07:30:37;;;;;;;1.95;1.80;;;;;;;23.31;76.90;96120.88;4988691;28;24479;-74
2022/08/02 07:33:04;;;;;;;2.45;2.08;;;;;;;23.24;73.96;96127.81;4992683;28;24433;-73
2022/08/02 07:35:31;;;;;;;3.42;2.10;;;;;;;23.34;75.49;96128.47;4991637;28;24484;-75
2022/08/02 07:37:57;;;;;;;3.70;2.50;;;;;;;23.57;73.54;96133.06;4976360;28;24437;-75
2022/08/02 07:40:24;;;;;;;2.53;2.20;;;;;;;23.46;72.28;96130.75;4987212;28;24488;-73
2022/08/02 07:42:52;;;;;;;4.28;2.53;;;;;;;23.60;72.65;96138.03;4987071;28;25073;-73
2022/08/02 07:45:20;;;;;;;4.20;2.50;;;;;;;23.61;71.40;96139.66;4984794;28;24440;-73
2022/08/02 07:47:48;;;;;;;2.88;2.20;;;;;;;23.46;71.31;96139.53;4987354;28;24429;-72
2022/08/02 07:50:17;;;;;;;3.50;2.73;;;;;;;23.79;71.70;96134.19;4995128;28;24444;-73
2022/08/02 07:52:44;;;;;;;4.50;3.50;;;;;;;24.15;71.34;96145.16;4993388;28;24433;-74
2022/08/02 07:55:12;;;;;;;3.65;2.78;;;;;;;24.00;69.26;96142.41;4987459;28;24536;-74
2022/08/02 07:57:40;;;;;;;3.92;2.97;;;;;;;23.76;68.61;96137.19;4987124;28;24474;-74
2022/08/02 08:00:08;;;;;;;3.28;2.75;;;;;;;24.17;68.28;96137.03;4990417;28;24451;-71
2022/08/02 08:02:35;;;;;;;4.85;3.10;;;;;;;24.47;68.84;96140.75;4982729;28;24437;-72
2022/08/02 08:05:02;;;;;;;4.05;3.30;;;;;;;24.67;65.70;96141.16;4987105;28;24445;-71
2022/08/02 08:07:29;;;;;;;3.78;3.15;;;;;;;24.37;65.57;96144.41;4989071;28;24440;-72
2022/08/02 08:09:56;;;;;;;3.30;2.45;;;;;;;23.82;68.48;96137.34;4997092;28;24447;-72
2022/08/02 08:12:22;;;;;;;6.80;2.97;;;;;;;24.05;68.62;96139.25;4993884;28;24978;-71
2022/08/02 08:14:49;;;;;;;4.75;2.50;;;;;;;24.35;68.48;96140.28;4987369;28;24834;-72
2022/08/02 08:17:16;;;;;;;4.65;2.38;;;;;;;24.85;64.98;96134.56;4982727;28;24443;-71
2022/08/02 08:19:42;;;;;;;3.10;2.35;;;;;;;24.77;65.76;96141.72;4988762;28;24454;-73
2022/08/02 08:22:10;;;;;;;6.55;2.83;;;;;;;25.08;66.26;96139.03;4993355;28;24437;-71
2022/08/02 08:24:37;;;;;;;3.43;2.50;;;;;;;25.53;62.20;96130.22;4985234;28;24499;-72
2022/08/02 08:27:05;;;;;;;4.17;2.50;;;;;;;25.95;63.09;96134.13;4996454;28;24889;-72
2022/08/02 08:29:32;;;;;;;5.07;2.78;;;;;;;25.98;61.63;96131.09;5000377;28;24441;-72
2022/08/02 08:31:58;;;;;;;2.63;2.42;;;;;;;26.13;63.37;96127.63;4985221;28;24432;-74
2022/08/02 08:34:29;;;;;;;4.15;2.65;;;;;;;26.39;61.18;96137.75;4989616;28;24484;-72
2022/08/02 08:36:55;;;;;;;4.40;2.95;;;;;;;26.72;60.04;96138.16;4996951;28;24447;-72
2022/08/02 08:39:23;;;;;;;3.80;2.60;;;;;;;26.67;58.91;96136.06;4991256;28;24452;-72
2022/08/02 08:41:50;;;;;;;4.28;2.50;;;;;;;26.42;59.41;96142.69;5000170;28;24439;-72
2022/08/02 08:44:16;;;;;;;5.75;2.90;;;;;;;26.88;59.01;96132.59;5000783;28;24507;-72
2022/08/02 08:46:43;;;;;;;2.72;2.50;;;;;;;26.73;58.68;96130.00;4995296;28;24506;-72
2022/08/02 08:49:21;;;;;;;2.83;2.10;;;;;;;26.82;58.54;96129.91;5000815;28;24480;-72
2022/08/02 08:51:51;;;;;;;3.60;2.40;;;;;;;27.02;59.19;96120.25;4993458;28;24439;-72
2022/08/02 08:54:19;;;;;;;3.70;2.63;;;;;;;27.05;57.16;96122.56;4988759;28;24484;-74
2022/08/02 08:56:47;;;;;;;3.00;2.20;;;;;;;27.32;57.79;96125.47;5000908;28;24490;-74
2022/08/02 08:59:13;;;;;;;5.20;2.40;;;;;;;27.50;56.70;96128.47;4992523;28;24989;-72
2022/08/02 09:01:40;;;;;;;5.68;2.33;;;;;;;27.16;57.32;96127.38;4997326;28;24445;-72
2022/08/02 09:04:06;;;;;;;4.05;2.60;;;;;;;27.13;56.81;96125.09;5001882;28;24457;-72
2022/08/02 09:06:33;;;;;;;4.10;2.47;;;;;;;26.87;57.45;96130.13;5000872;28;24447;-72
2022/08/02 09:08:59;;;;;;;4.20;2.80;;;;;;;27.05;55.43;96119.91;4993754;28;24441;-72
2022/08/02 09:11:26;;;;;;;5.70;2.50;;;;;;;26.78;57.06;96118.81;4987769;28;24989;-73
2022/08/02 09:13:56;;;;;;;3.15;2.50;;;;;;;27.02;56.31;96123.75;4992731;28;24444;-72
2022/08/02 09:16:31;;;;;;;2.63;2.15;;;;;;;27.55;55.24;96117.25;4989432;28;24439;-72
2022/08/02 09:18:58;;;;;;;5.43;2.40;;;;;;;27.83;55.27;96107.44;4983506;28;24928;-73
2022/08/02 09:21:34;;;;;;;2.97;2.58;;;;;;;27.49;51.48;96109.03;4992323;28;24525;-72
2022/08/02 09:24:01;;;;;;;5.75;2.30;;;;;;;27.34;52.23;96120.78;4993253;28;24464;-72
2022/08/02 09:26:28;;;;;;;6.97;2.65;;;;;;;27.59;55.16;96114.03;4999791;28;24440;-75
2022/08/02 09:29:02;;;;;;;3.90;2.43;;;;;;;27.77;52.20;96110.88;4999554;28;25056;-72
2022/08/02 09:31:28;;;;;;;3.97;2.72;;;;;;;27.59;51.16;96116.69;4983565;28;24441;-73
2022/08/02 09:33:56;;;;;;;3.55;2.65;;;;;;;27.32;51.68;96110.31;4984005;28;24505;-72
2022/08/02 09:36:24;;;;;;;3.42;2.45;;;;;;;27.39;52.54;96115.72;4974460;28;24529;-72
2022/08/02 09:38:56;;;;;;;3.08;2.10;;;;;;;27.29;52.58;96108.03;4995891;28;24839;-72
2022/08/02 09:41:24;;;;;;;4.38;2.28;;;;;;;27.43;50.99;96123.09;4987165;28;24571;-72
2022/08/02 09:43:51;;;;;;;2.83;1.92;;;;;;;27.46;50.56;96116.59;4993012;28;24456;-74
2022/08/02 09:46:20;;;;;;;2.85;2.20;;;;;;;27.56;50.95;96122.41;5000570;28;24520;-72
2022/08/02 09:48:52;;;;;;;4.40;2.50;;;;;;;27.77;51.22;96118.03;4996517;28;24516;-72
2022/08/02 09:51:21;;;;;;;4.13;2.17;;;;;;;27.80;48.69;96120.31;4987638;28;24981;-71
2022/08/02 09:53:50;;;;;;;6.80;2.33;;;;;;;27.97;48.67;96114.50;4996769;28;25001;-72
2022/08/02 09:56:17;;;;;;;3.25;2.30;;;;;;;28.14;48.27;96122.16;5001250;28;24436;-72
2022/08/02 09:58:44;;;;;;;3.03;2.00;;;;;;;27.97;47.72;96113.69;4996486;28;24525;-71
2022/08/02 10:01:11;;;;;;;3.43;2.07;;;;;;;28.10;47.63;96120.91;5002192;28;24428;-73
2022/08/02 10:03:54;;;;;;;3.42;2.22;;;;;;;27.81;48.78;96116.63;4997195;28;25036;-72
2022/08/02 10:06:21;;;;;;;2.80;2.50;;;;;;;27.81;49.05;96121.97;4988448;28;25018;-72
2022/08/02 10:08:48;;;;;;;3.05;2.05;;;;;;;27.66;50.02;96108.72;4997048;28;24433;-72
2022/08/02 10:11:14;;;;;;;3.13;2.50;;;;;;;27.35;50.16;96112.59;4989618;28;24443;-72
2022/08/02 10:13:42;;;;;;;4.30;2.05;;;;;;;27.07;49.68;96112.56;4997426;28;24445;-72
2022/08/02 10:16:10;;;;;;;2.95;2.25;;;;;;;27.08;49.09;96111.53;4981695;28;24452;-72
2022/08/02 10:18:36;;;;;;;4.72;2.17;;;;;;;27.18;50.19;96105.91;4984477;28;24438;-72
2022/08/02 10:21:07;;;;;;;3.78;2.13;;;;;;;27.23;48.71;96104.34;4986478;28;24437;-72
2022/08/02 10:23:36;;;;;;;3.13;2.20;;;;;;;26.96;48.76;96108.56;4997691;28;24507;-72
2022/08/02 10:26:04;;;;;;;2.25;2.00;;;;;;;26.34;49.95;96102.97;4988912;28;24528;-72
2022/08/02 10:28:31;;;;;;;3.63;2.45;;;;;;;25.46;52.66;96105.44;4992361;28;24487;-72
2022/08/02 10:30:59;;;;;;;3.70;2.47;;;;;;;25.53;53.17;96095.75;4995418;28;24429;-71
2022/08/02 10:33:27;;;;;;;4.70;2.45;;;;;;;26.21;52.61;96096.47;4997509;28;24441;-70
2022/08/02 10:35:57;;;;;;;4.95;2.47;;;;;;;25.82;52.37;96089.66;4996051;28;24439;-72
2022/08/02 10:38:26;;;;;;;2.28;2.05;;;;;;;26.17;51.33;96094.38;4986908;28;24967;-73
2022/08/02 10:40:55;;;;;;;4.40;2.30;;;;;;;26.12;50.10;96094.13;4990460;28;24447;-72
2022/08/02 10:43:41;;;;;;;3.22;2.42;;;;;;;26.54;53.47;96080.13;4996110;28;22340;-71
2022/08/02 10:46:32;;;;;;;3.30;2.20;;;;;;;26.63;49.87;96081.69;4987252;28;24890;-70
2022/08/02 10:49:03;;;;;;;3.45;2.50;;;;;;;27.40;47.67;96078.28;4998183;28;25193;-70
2022/08/02 10:51:56;;;;;;;3.20;1.98;;;;;;;27.00;47.78;96079.78;4990808;28;24441;-72
2022/08/02 10:54:26;;;;;;;5.90;2.25;;;;;;;26.95;48.36;96071.53;4986662;28;24433;-72
2022/08/02 10:56:54;;;;;;;2.38;2.13;;;;;;;27.21;47.69;96074.44;4991755;28;24444;-73
2022/08/02 10:59:26;;;;;;;4.17;2.20;;;;;;;27.31;46.38;96075.97;4998247;28;25025;-74
2022/08/02 11:01:59;;;;;;;2.75;2.00;;;;;;;27.55;46.82;96072.88;4995775;28;24527;-73
2022/08/02 11:04:27;;;;;;;3.58;1.98;;;;;;;28.02;46.28;96071.31;4998933;28;24449;-73
2022/08/02 11:07:14;;;;;;;2.88;2.08;;;;;;;27.58;45.26;96069.78;4997301;28;24479;-73
2022/08/02 11:09:42;;;;;;;4.40;2.17;;;;;;;27.78;45.98;96072.63;4985810;28;24495;-72
2022/08/02 11:12:11;;;;;;;3.75;2.20;;;;;;;28.10;47.26;96076.44;4982012;28;24467;-73
2022/08/02 11:14:40;;;;;;;2.05;1.85;;;;;;;28.14;45.72;96066.22;4996510;28;24516;-71
2022/08/02 11:17:12;;;;;;;3.95;1.95;;;;;;;27.80;45.30;96059.09;4987820;28;24444;-70
2022/08/02 11:20:17;;;;;;;2.25;1.88;;;;;;;28.43;45.49;96063.28;4992627;28;24425;-70
2022/08/02 11:22:45;;;;;;;3.20;2.03;;;;;;;27.97;44.54;96057.78;4989059;28;24539;-74
2022/08/02 11:25:33;;;;;;;2.10;1.85;;;;;;;27.99;44.13;96051.22;4982871;28;24457;-72
2022/08/02 11:28:10;;;;;;;2.03;1.65;;;;;;;27.98;44.23;96060.22;4998658;28;25009;-76
2022/08/02 11:30:37;;;;;;;2.20;2.00;;;;;;;28.17;44.43;96048.00;4997424;28;24447;-73
2022/08/02 11:33:04;;;;;;;3.10;2.33;;;;;;;28.57;45.93;96048.16;4999119;28;24447;-71
2022/08/02 11:35:33;;;;;;;2.53;2.00;;;;;;;28.23;45.15;96057.06;4997656;28;24826;-72
2022/08/02 11:38:12;;;;;;;2.30;1.90;;;;;;;28.41;44.94;96048.53;4991775;28;24447;-73
2022/08/02 11:40:41;;;;;;;2.83;2.10;;;;;;;28.42;44.35;96051.00;4993826;28;24547;-74
2022/08/02 11:43:17;;;;;;;2.45;2.00;;;;;;;28.34;43.58;96053.81;4979734;28;24452;-73